sensor_id;sensor_type;location;lat;lon;timestamp;P1;durP1;ratioP1;P2;durP2;ratioP2
35907;SDS011;22003;50.320;8.054;2024-03-02T00:00:18;22.58;;;14.05;;
35907;SDS011;22003;50.320;8.054;2024-03-02T00:05:12;27.75;;;14.48;;
35907;SDS011;22003;50.320;8.054;2024-03-02T00:07:45;41.88;;;22.65;;
35907;SDS011;22003;50.320;8.054;2024-03-02T00:10:19;35.72;;;18.67;;
35907;SDS011;22003;50.320;8.054;2024-03-02T00:12:46;31.05;;;17.38;;
35907;SDS011;22003;50.320;8.054;2024-03-02T00:17:59;45.63;;;23.35;;
35907;SDS011;22003;50.320;8.054;2024-03-02T00:20:24;43.60;;;22.52;;
35907;SDS011;22003;50.320;8.054;2024-03-02T00:25:27;30.05;;;15.65;;
35907;SDS011;22003;50.320;8.054;2024-03-02T00:28:04;26.73;;;15.10;;
35907;SDS011;22003;50.320;8.054;2024-03-02T00:33:23;27.73;;;16.15;;
35907;SDS011;22003;50.320;8.054;2024-03-02T00:35:51;41.65;;;21.95;;
35907;SDS011;22003;50.320;8.054;2024-03-02T00:38:16;42.50;;;23.00;;
35907;SDS011;22003;50.320;8.054;2024-03-02T00:40:42;27.08;;;15.32;;
35907;SDS011;22003;50.320;8.054;2024-03-02T00:46:11;25.33;;;15.38;;
35907;SDS011;22003;50.320;8.054;2024-03-02T00:48:37;28.48;;;16.42;;
35907;SDS011;22003;50.320;8.054;2024-03-02T00:51:04;24.80;;;14.48;;
35907;SDS011;22003;50.320;8.054;2024-03-02T00:53:29;33.47;;;17.20;;
35907;SDS011;22003;50.320;8.054;2024-03-02T00:55:55;31.50;;;18.83;;
35907;SDS011;22003;50.320;8.054;2024-03-02T00:58:20;28.70;;;16.67;;
35907;SDS011;22003;50.320;8.054;2024-03-02T01:00:46;31.52;;;18.48;;
35907;SDS011;22003;50.320;8.054;2024-03-02T01:03:12;35.85;;;18.00;;
35907;SDS011;22003;50.320;8.054;2024-03-02T01:05:40;39.75;;;21.27;;
35907;SDS011;22003;50.320;8.054;2024-03-02T01:08:07;34.42;;;18.35;;
35907;SDS011;22003;50.320;8.054;2024-03-02T01:10:32;31.95;;;18.77;;
35907;SDS011;22003;50.320;8.054;2024-03-02T01:12:58;38.92;;;21.83;;
35907;SDS011;22003;50.320;8.054;2024-03-02T01:15:23;51.78;;;24.30;;
35907;SDS011;22003;50.320;8.054;2024-03-02T01:17:48;43.58;;;23.10;;
35907;SDS011;22003;50.320;8.054;2024-03-02T01:20:13;37.47;;;20.27;;
35907;SDS011;22003;50.320;8.054;2024-03-02T01:22:39;38.33;;;20.05;;
35907;SDS011;22003;50.320;8.054;2024-03-02T01:25:04;40.67;;;20.40;;
35907;SDS011;22003;50.320;8.054;2024-03-02T01:27:30;34.63;;;18.25;;
35907;SDS011;22003;50.320;8.054;2024-03-02T01:29:55;31.80;;;18.60;;
35907;SDS011;22003;50.320;8.054;2024-03-02T01:32:20;38.30;;;19.58;;
35907;SDS011;22003;50.320;8.054;2024-03-02T01:34:45;40.47;;;20.42;;
35907;SDS011;22003;50.320;8.054;2024-03-02T01:37:11;41.33;;;20.85;;
35907;SDS011;22003;50.320;8.054;2024-03-02T01:39:36;38.20;;;21.73;;
35907;SDS011;22003;50.320;8.054;2024-03-02T01:42:01;40.53;;;21.00;;
35907;SDS011;22003;50.320;8.054;2024-03-02T01:44:27;37.85;;;20.33;;
35907;SDS011;22003;50.320;8.054;2024-03-02T01:46:52;31.77;;;18.55;;
35907;SDS011;22003;50.320;8.054;2024-03-02T01:49:17;45.15;;;21.33;;
35907;SDS011;22003;50.320;8.054;2024-03-02T01:51:43;43.22;;;22.83;;
35907;SDS011;22003;50.320;8.054;2024-03-02T01:54:09;45.13;;;22.92;;
35907;SDS011;22003;50.320;8.054;2024-03-02T01:56:34;42.35;;;21.90;;
35907;SDS011;22003;50.320;8.054;2024-03-02T01:58:59;39.28;;;20.95;;
35907;SDS011;22003;50.320;8.054;2024-03-02T02:01:25;42.17;;;21.80;;
35907;SDS011;22003;50.320;8.054;2024-03-02T02:03:50;35.05;;;19.90;;
35907;SDS011;22003;50.320;8.054;2024-03-02T02:06:15;35.38;;;19.08;;
35907;SDS011;22003;50.320;8.054;2024-03-02T02:08:40;37.55;;;19.67;;
35907;SDS011;22003;50.320;8.054;2024-03-02T02:11:06;36.40;;;19.52;;
35907;SDS011;22003;50.320;8.054;2024-03-02T02:13:31;40.53;;;19.55;;
35907;SDS011;22003;50.320;8.054;2024-03-02T02:16:04;37.92;;;18.95;;
35907;SDS011;22003;50.320;8.054;2024-03-02T02:18:30;30.95;;;17.98;;
35907;SDS011;22003;50.320;8.054;2024-03-02T02:20:55;33.55;;;19.45;;
35907;SDS011;22003;50.320;8.054;2024-03-02T02:23:20;33.03;;;18.70;;
35907;SDS011;22003;50.320;8.054;2024-03-02T02:25:46;32.38;;;18.48;;
35907;SDS011;22003;50.320;8.054;2024-03-02T02:28:11;33.05;;;18.38;;
35907;SDS011;22003;50.320;8.054;2024-03-02T02:30:36;38.67;;;21.80;;
35907;SDS011;22003;50.320;8.054;2024-03-02T02:33:01;47.00;;;23.13;;
35907;SDS011;22003;50.320;8.054;2024-03-02T02:35:27;37.65;;;21.95;;
35907;SDS011;22003;50.320;8.054;2024-03-02T02:37:54;37.22;;;22.75;;
35907;SDS011;22003;50.320;8.054;2024-03-02T02:40:20;40.58;;;21.67;;
35907;SDS011;22003;50.320;8.054;2024-03-02T02:42:46;26.98;;;16.58;;
35907;SDS011;22003;50.320;8.054;2024-03-02T02:45:11;29.77;;;17.48;;
35907;SDS011;22003;50.320;8.054;2024-03-02T02:47:39;32.85;;;17.08;;
35907;SDS011;22003;50.320;8.054;2024-03-02T02:50:04;32.95;;;15.63;;
35907;SDS011;22003;50.320;8.054;2024-03-02T02:52:32;28.05;;;15.63;;
35907;SDS011;22003;50.320;8.054;2024-03-02T02:54:58;23.38;;;14.95;;
35907;SDS011;22003;50.320;8.054;2024-03-02T02:57:24;28.67;;;15.82;;
35907;SDS011;22003;50.320;8.054;2024-03-02T02:59:49;28.48;;;14.82;;
35907;SDS011;22003;50.320;8.054;2024-03-02T03:02:14;27.00;;;14.90;;
35907;SDS011;22003;50.320;8.054;2024-03-02T03:04:40;27.52;;;15.93;;
35907;SDS011;22003;50.320;8.054;2024-03-02T03:07:05;33.08;;;18.23;;
35907;SDS011;22003;50.320;8.054;2024-03-02T03:09:31;39.72;;;20.85;;
35907;SDS011;22003;50.320;8.054;2024-03-02T03:11:56;39.72;;;22.75;;
35907;SDS011;22003;50.320;8.054;2024-03-02T03:14:21;41.85;;;23.05;;
35907;SDS011;22003;50.320;8.054;2024-03-02T03:16:46;45.70;;;23.85;;
35907;SDS011;22003;50.320;8.054;2024-03-02T03:19:13;44.30;;;23.87;;
35907;SDS011;22003;50.320;8.054;2024-03-02T03:21:38;46.40;;;22.90;;
35907;SDS011;22003;50.320;8.054;2024-03-02T03:24:04;42.83;;;23.70;;
35907;SDS011;22003;50.320;8.054;2024-03-02T03:26:29;42.65;;;22.60;;
35907;SDS011;22003;50.320;8.054;2024-03-02T03:28:54;47.38;;;23.83;;
35907;SDS011;22003;50.320;8.054;2024-03-02T03:31:20;40.05;;;23.17;;
35907;SDS011;22003;50.320;8.054;2024-03-02T03:33:45;42.92;;;22.58;;
35907;SDS011;22003;50.320;8.054;2024-03-02T03:36:10;43.63;;;23.60;;
35907;SDS011;22003;50.320;8.054;2024-03-02T03:38:36;38.78;;;22.45;;
35907;SDS011;22003;50.320;8.054;2024-03-02T03:41:01;41.15;;;22.52;;
35907;SDS011;22003;50.320;8.054;2024-03-02T03:43:26;39.17;;;20.90;;
35907;SDS011;22003;50.320;8.054;2024-03-02T03:45:51;39.00;;;21.58;;
35907;SDS011;22003;50.320;8.054;2024-03-02T03:48:17;39.88;;;21.48;;
35907;SDS011;22003;50.320;8.054;2024-03-02T03:50:42;40.53;;;21.70;;
35907;SDS011;22003;50.320;8.054;2024-03-02T03:53:07;42.80;;;23.10;;
35907;SDS011;22003;50.320;8.054;2024-03-02T03:55:33;43.00;;;22.45;;
35907;SDS011;22003;50.320;8.054;2024-03-02T03:57:58;56.08;;;27.50;;
35907;SDS011;22003;50.320;8.054;2024-03-02T04:00:24;39.72;;;21.25;;
35907;SDS011;22003;50.320;8.054;2024-03-02T04:02:49;46.17;;;22.05;;
35907;SDS011;22003;50.320;8.054;2024-03-02T04:05:14;37.53;;;21.48;;
35907;SDS011;22003;50.320;8.054;2024-03-02T04:07:39;35.17;;;21.30;;
35907;SDS011;22003;50.320;8.054;2024-03-02T04:10:08;37.22;;;22.38;;
35907;SDS011;22003;50.320;8.054;2024-03-02T04:12:35;37.72;;;22.83;;
35907;SDS011;22003;50.320;8.054;2024-03-02T04:15:02;37.55;;;21.88;;
35907;SDS011;22003;50.320;8.054;2024-03-02T04:17:28;42.05;;;21.60;;
35907;SDS011;22003;50.320;8.054;2024-03-02T04:19:54;38.63;;;22.55;;
35907;SDS011;22003;50.320;8.054;2024-03-02T04:22:19;34.95;;;19.40;;
35907;SDS011;22003;50.320;8.054;2024-03-02T04:24:44;35.25;;;19.23;;
35907;SDS011;22003;50.320;8.054;2024-03-02T04:27:10;35.53;;;19.42;;
35907;SDS011;22003;50.320;8.054;2024-03-02T04:29:35;33.60;;;19.23;;
35907;SDS011;22003;50.320;8.054;2024-03-02T04:32:00;33.30;;;19.02;;
35907;SDS011;22003;50.320;8.054;2024-03-02T04:34:25;34.85;;;19.95;;
35907;SDS011;22003;50.320;8.054;2024-03-02T04:36:50;35.78;;;18.90;;
35907;SDS011;22003;50.320;8.054;2024-03-02T04:39:16;32.38;;;18.65;;
35907;SDS011;22003;50.320;8.054;2024-03-02T04:41:41;35.88;;;18.92;;
35907;SDS011;22003;50.320;8.054;2024-03-02T04:44:06;34.95;;;18.00;;
35907;SDS011;22003;50.320;8.054;2024-03-02T04:46:33;31.50;;;18.02;;
35907;SDS011;22003;50.320;8.054;2024-03-02T04:48:58;34.00;;;17.83;;
35907;SDS011;22003;50.320;8.054;2024-03-02T04:51:23;34.45;;;19.90;;
35907;SDS011;22003;50.320;8.054;2024-03-02T04:53:48;37.35;;;22.17;;
35907;SDS011;22003;50.320;8.054;2024-03-02T04:56:14;34.92;;;20.35;;
35907;SDS011;22003;50.320;8.054;2024-03-02T04:58:51;35.47;;;19.65;;
35907;SDS011;22003;50.320;8.054;2024-03-02T05:01:16;31.45;;;19.63;;
35907;SDS011;22003;50.320;8.054;2024-03-02T05:03:42;30.90;;;18.25;;
35907;SDS011;22003;50.320;8.054;2024-03-02T05:06:07;35.00;;;21.20;;
35907;SDS011;22003;50.320;8.054;2024-03-02T05:08:33;37.78;;;21.13;;
35907;SDS011;22003;50.320;8.054;2024-03-02T05:10:59;33.58;;;19.20;;
35907;SDS011;22003;50.320;8.054;2024-03-02T05:13:44;36.55;;;21.23;;
35907;SDS011;22003;50.320;8.054;2024-03-02T05:16:09;33.40;;;18.75;;
35907;SDS011;22003;50.320;8.054;2024-03-02T05:18:34;31.13;;;17.83;;
35907;SDS011;22003;50.320;8.054;2024-03-02T05:20:59;29.70;;;18.80;;
35907;SDS011;22003;50.320;8.054;2024-03-02T05:23:25;26.88;;;16.67;;
35907;SDS011;22003;50.320;8.054;2024-03-02T05:25:50;29.77;;;16.60;;
35907;SDS011;22003;50.320;8.054;2024-03-02T05:28:15;32.30;;;17.38;;
35907;SDS011;22003;50.320;8.054;2024-03-02T05:30:42;26.90;;;16.77;;
35907;SDS011;22003;50.320;8.054;2024-03-02T05:33:07;29.77;;;16.73;;
35907;SDS011;22003;50.320;8.054;2024-03-02T05:35:32;32.13;;;17.33;;
35907;SDS011;22003;50.320;8.054;2024-03-02T05:37:58;31.75;;;16.15;;
35907;SDS011;22003;50.320;8.054;2024-03-02T05:40:23;33.00;;;17.15;;
35907;SDS011;22003;50.320;8.054;2024-03-02T05:42:49;31.13;;;17.35;;
35907;SDS011;22003;50.320;8.054;2024-03-02T05:45:14;28.33;;;17.38;;
35907;SDS011;22003;50.320;8.054;2024-03-02T05:47:41;26.02;;;15.77;;
35907;SDS011;22003;50.320;8.054;2024-03-02T05:50:06;32.38;;;16.77;;
35907;SDS011;22003;50.320;8.054;2024-03-02T05:52:32;31.50;;;18.00;;
35907;SDS011;22003;50.320;8.054;2024-03-02T05:54:57;29.13;;;15.75;;
35907;SDS011;22003;50.320;8.054;2024-03-02T05:57:22;27.83;;;16.30;;
35907;SDS011;22003;50.320;8.054;2024-03-02T06:00:10;23.83;;;15.30;;
35907;SDS011;22003;50.320;8.054;2024-03-02T06:02:38;27.88;;;16.45;;
35907;SDS011;22003;50.320;8.054;2024-03-02T06:05:04;31.40;;;15.77;;
35907;SDS011;22003;50.320;8.054;2024-03-02T06:07:32;26.13;;;15.25;;
35907;SDS011;22003;50.320;8.054;2024-03-02T06:09:57;24.92;;;15.35;;
35907;SDS011;22003;50.320;8.054;2024-03-02T06:12:23;27.27;;;16.48;;
35907;SDS011;22003;50.320;8.054;2024-03-02T06:14:48;32.15;;;17.50;;
35907;SDS011;22003;50.320;8.054;2024-03-02T06:17:14;27.38;;;16.15;;
35907;SDS011;22003;50.320;8.054;2024-03-02T06:19:39;22.63;;;15.25;;
35907;SDS011;22003;50.320;8.054;2024-03-02T06:22:04;23.30;;;15.57;;
35907;SDS011;22003;50.320;8.054;2024-03-02T06:24:30;26.90;;;15.85;;
35907;SDS011;22003;50.320;8.054;2024-03-02T06:26:55;26.58;;;15.65;;
35907;SDS011;22003;50.320;8.054;2024-03-02T06:29:21;25.92;;;15.80;;
35907;SDS011;22003;50.320;8.054;2024-03-02T06:31:46;22.58;;;14.82;;
35907;SDS011;22003;50.320;8.054;2024-03-02T06:34:12;27.25;;;15.43;;
35907;SDS011;22003;50.320;8.054;2024-03-02T06:36:38;26.70;;;15.27;;
35907;SDS011;22003;50.320;8.054;2024-03-02T06:41:30;21.73;;;13.07;;
35907;SDS011;22003;50.320;8.054;2024-03-02T06:43:56;22.33;;;13.88;;
35907;SDS011;22003;50.320;8.054;2024-03-02T06:46:24;20.38;;;13.55;;
35907;SDS011;22003;50.320;8.054;2024-03-02T06:48:50;21.77;;;13.15;;
35907;SDS011;22003;50.320;8.054;2024-03-02T06:51:16;21.38;;;12.48;;
35907;SDS011;22003;50.320;8.054;2024-03-02T06:53:41;18.60;;;13.10;;
35907;SDS011;22003;50.320;8.054;2024-03-02T06:56:06;20.23;;;11.80;;
35907;SDS011;22003;50.320;8.054;2024-03-02T06:58:32;20.63;;;13.05;;
35907;SDS011;22003;50.320;8.054;2024-03-02T07:00:57;22.02;;;12.27;;
35907;SDS011;22003;50.320;8.054;2024-03-02T07:03:23;24.38;;;12.55;;
35907;SDS011;22003;50.320;8.054;2024-03-02T07:05:48;19.35;;;11.65;;
35907;SDS011;22003;50.320;8.054;2024-03-02T07:08:13;16.10;;;10.13;;
35907;SDS011;22003;50.320;8.054;2024-03-02T07:10:38;17.25;;;11.27;;
35907;SDS011;22003;50.320;8.054;2024-03-02T07:13:04;22.75;;;10.63;;
35907;SDS011;22003;50.320;8.054;2024-03-02T07:15:29;18.38;;;10.85;;
35907;SDS011;22003;50.320;8.054;2024-03-02T07:18:12;16.15;;;10.18;;
35907;SDS011;22003;50.320;8.054;2024-03-02T07:20:38;16.02;;;9.77;;
35907;SDS011;22003;50.320;8.054;2024-03-02T07:23:04;12.73;;;9.07;;
35907;SDS011;22003;50.320;8.054;2024-03-02T07:25:29;17.83;;;9.57;;
35907;SDS011;22003;50.320;8.054;2024-03-02T07:27:55;17.92;;;10.45;;
35907;SDS011;22003;50.320;8.054;2024-03-02T07:30:20;16.13;;;10.30;;
35907;SDS011;22003;50.320;8.054;2024-03-02T07:32:46;13.70;;;9.23;;
35907;SDS011;22003;50.320;8.054;2024-03-02T07:35:12;15.27;;;10.82;;
35907;SDS011;22003;50.320;8.054;2024-03-02T07:37:38;30.85;;;17.77;;
35907;SDS011;22003;50.320;8.054;2024-03-02T07:40:04;43.17;;;20.67;;
35907;SDS011;22003;50.320;8.054;2024-03-02T07:42:29;18.65;;;11.93;;
35907;SDS011;22003;50.320;8.054;2024-03-02T07:44:55;19.80;;;10.23;;
35907;SDS011;22003;50.320;8.054;2024-03-02T07:47:20;21.42;;;12.05;;
35907;SDS011;22003;50.320;8.054;2024-03-02T07:49:45;14.65;;;9.55;;
35907;SDS011;22003;50.320;8.054;2024-03-02T07:52:11;18.92;;;10.25;;
35907;SDS011;22003;50.320;8.054;2024-03-02T07:54:36;14.80;;;9.73;;
35907;SDS011;22003;50.320;8.054;2024-03-02T07:57:02;18.38;;;9.70;;
35907;SDS011;22003;50.320;8.054;2024-03-02T07:59:27;17.08;;;9.00;;
35907;SDS011;22003;50.320;8.054;2024-03-02T08:01:52;12.98;;;8.90;;
35907;SDS011;22003;50.320;8.054;2024-03-02T08:04:20;12.00;;;7.47;;
35907;SDS011;22003;50.320;8.054;2024-03-02T08:06:45;16.40;;;9.38;;
35907;SDS011;22003;50.320;8.054;2024-03-02T08:09:10;27.42;;;14.80;;
35907;SDS011;22003;50.320;8.054;2024-03-02T08:11:36;13.27;;;7.75;;
35907;SDS011;22003;50.320;8.054;2024-03-02T08:14:02;12.38;;;7.95;;
35907;SDS011;22003;50.320;8.054;2024-03-02T08:16:28;11.50;;;8.25;;
35907;SDS011;22003;50.320;8.054;2024-03-02T08:18:53;17.13;;;7.70;;
35907;SDS011;22003;50.320;8.054;2024-03-02T08:21:19;11.45;;;7.18;;
35907;SDS011;22003;50.320;8.054;2024-03-02T08:23:44;9.57;;;6.60;;
35907;SDS011;22003;50.320;8.054;2024-03-02T08:26:10;9.45;;;6.95;;
35907;SDS011;22003;50.320;8.054;2024-03-02T08:28:35;12.00;;;7.18;;
35907;SDS011;22003;50.320;8.054;2024-03-02T08:31:05;10.35;;;6.15;;
35907;SDS011;22003;50.320;8.054;2024-03-02T08:33:31;10.20;;;6.35;;
35907;SDS011;22003;50.320;8.054;2024-03-02T08:35:56;11.40;;;6.65;;
35907;SDS011;22003;50.320;8.054;2024-03-02T08:38:21;9.80;;;6.32;;
35907;SDS011;22003;50.320;8.054;2024-03-02T08:40:47;9.27;;;6.28;;
35907;SDS011;22003;50.320;8.054;2024-03-02T08:43:14;11.02;;;7.10;;
35907;SDS011;22003;50.320;8.054;2024-03-02T08:45:39;9.68;;;6.60;;
35907;SDS011;22003;50.320;8.054;2024-03-02T08:48:06;9.23;;;6.38;;
35907;SDS011;22003;50.320;8.054;2024-03-02T08:50:33;10.82;;;6.35;;
35907;SDS011;22003;50.320;8.054;2024-03-02T08:52:58;11.13;;;6.35;;
35907;SDS011;22003;50.320;8.054;2024-03-02T08:55:24;10.48;;;6.32;;
35907;SDS011;22003;50.320;8.054;2024-03-02T08:57:49;9.18;;;5.75;;
35907;SDS011;22003;50.320;8.054;2024-03-02T09:00:15;8.65;;;5.18;;
35907;SDS011;22003;50.320;8.054;2024-03-02T09:02:42;8.25;;;5.38;;
35907;SDS011;22003;50.320;8.054;2024-03-02T09:05:09;8.45;;;5.05;;
35907;SDS011;22003;50.320;8.054;2024-03-02T09:07:34;8.80;;;5.18;;
35907;SDS011;22003;50.320;8.054;2024-03-02T09:10:00;7.57;;;4.47;;
35907;SDS011;22003;50.320;8.054;2024-03-02T09:12:25;8.90;;;5.07;;
35907;SDS011;22003;50.320;8.054;2024-03-02T09:14:50;8.43;;;5.35;;
35907;SDS011;22003;50.320;8.054;2024-03-02T09:17:16;8.00;;;4.68;;
35907;SDS011;22003;50.320;8.054;2024-03-02T09:19:42;9.32;;;4.32;;
35907;SDS011;22003;50.320;8.054;2024-03-02T09:22:07;9.45;;;4.25;;
35907;SDS011;22003;50.320;8.054;2024-03-02T09:24:32;7.57;;;4.60;;
35907;SDS011;22003;50.320;8.054;2024-03-02T09:27:00;6.25;;;3.30;;
35907;SDS011;22003;50.320;8.054;2024-03-02T09:29:25;6.22;;;4.05;;
35907;SDS011;22003;50.320;8.054;2024-03-02T09:31:51;4.40;;;3.20;;
35907;SDS011;22003;50.320;8.054;2024-03-02T09:34:16;6.05;;;2.90;;
35907;SDS011;22003;50.320;8.054;2024-03-02T09:36:42;6.85;;;4.00;;
35907;SDS011;22003;50.320;8.054;2024-03-02T09:39:08;5.78;;;3.70;;
35907;SDS011;22003;50.320;8.054;2024-03-02T09:41:34;5.53;;;3.77;;
35907;SDS011;22003;50.320;8.054;2024-03-02T09:44:01;4.85;;;3.40;;
35907;SDS011;22003;50.320;8.054;2024-03-02T09:46:27;4.70;;;3.30;;
35907;SDS011;22003;50.320;8.054;2024-03-02T09:48:52;6.95;;;3.45;;
35907;SDS011;22003;50.320;8.054;2024-03-02T09:51:18;5.28;;;3.50;;
35907;SDS011;22003;50.320;8.054;2024-03-02T09:53:44;6.25;;;3.38;;
35907;SDS011;22003;50.320;8.054;2024-03-02T09:56:11;5.15;;;3.47;;
35907;SDS011;22003;50.320;8.054;2024-03-02T09:58:36;5.35;;;3.33;;
35907;SDS011;22003;50.320;8.054;2024-03-02T10:01:05;5.28;;;3.40;;
35907;SDS011;22003;50.320;8.054;2024-03-02T10:03:31;11.73;;;3.33;;
35907;SDS011;22003;50.320;8.054;2024-03-02T10:08:53;4.80;;;3.05;;
35907;SDS011;22003;50.320;8.054;2024-03-02T10:11:33;3.85;;;3.00;;
35907;SDS011;22003;50.320;8.054;2024-03-02T10:14:08;4.85;;;2.65;;
35907;SDS011;22003;50.320;8.054;2024-03-02T10:16:35;5.45;;;3.03;;
35907;SDS011;22003;50.320;8.054;2024-03-02T10:21:44;5.22;;;2.20;;
35907;SDS011;22003;50.320;8.054;2024-03-02T10:24:20;6.07;;;2.80;;
35907;SDS011;22003;50.320;8.054;2024-03-02T10:26:46;5.88;;;2.67;;
35907;SDS011;22003;50.320;8.054;2024-03-02T10:29:12;5.30;;;3.03;;
35907;SDS011;22003;50.320;8.054;2024-03-02T10:31:38;6.07;;;3.30;;
35907;SDS011;22003;50.320;8.054;2024-03-02T10:34:04;4.50;;;2.65;;
35907;SDS011;22003;50.320;8.054;2024-03-02T10:36:30;5.47;;;3.58;;
35907;SDS011;22003;50.320;8.054;2024-03-02T10:38:56;5.10;;;2.50;;
35907;SDS011;22003;50.320;8.054;2024-03-02T10:41:23;3.92;;;2.42;;
35907;SDS011;22003;50.320;8.054;2024-03-02T10:43:51;2.85;;;1.80;;
35907;SDS011;22003;50.320;8.054;2024-03-02T10:46:20;3.75;;;2.40;;
35907;SDS011;22003;50.320;8.054;2024-03-02T10:48:47;3.63;;;2.25;;
35907;SDS011;22003;50.320;8.054;2024-03-02T10:51:14;3.00;;;2.35;;
35907;SDS011;22003;50.320;8.054;2024-03-02T10:53:39;4.35;;;2.50;;
35907;SDS011;22003;50.320;8.054;2024-03-02T10:56:05;5.15;;;2.10;;
35907;SDS011;22003;50.320;8.054;2024-03-02T10:58:32;2.90;;;2.22;;
35907;SDS011;22003;50.320;8.054;2024-03-02T11:01:02;3.85;;;2.55;;
35907;SDS011;22003;50.320;8.054;2024-03-02T11:03:29;5.20;;;2.50;;
35907;SDS011;22003;50.320;8.054;2024-03-02T11:05:58;6.85;;;3.22;;
35907;SDS011;22003;50.320;8.054;2024-03-02T11:08:25;5.25;;;3.28;;
35907;SDS011;22003;50.320;8.054;2024-03-02T11:10:57;5.78;;;2.63;;
35907;SDS011;22003;50.320;8.054;2024-03-02T11:13:33;6.40;;;3.50;;
35907;SDS011;22003;50.320;8.054;2024-03-02T11:15:59;3.30;;;2.55;;
35907;SDS011;22003;50.320;8.054;2024-03-02T11:18:31;3.75;;;2.60;;
35907;SDS011;22003;50.320;8.054;2024-03-02T11:20:57;4.10;;;2.45;;
35907;SDS011;22003;50.320;8.054;2024-03-02T11:23:33;3.85;;;2.30;;
35907;SDS011;22003;50.320;8.054;2024-03-02T11:28:47;5.72;;;3.60;;
35907;SDS011;22003;50.320;8.054;2024-03-02T11:31:12;63.35;;;27.98;;
35907;SDS011;22003;50.320;8.054;2024-03-02T11:33:38;46.45;;;25.10;;
35907;SDS011;22003;50.320;8.054;2024-03-02T11:36:04;12.70;;;7.05;;
35907;SDS011;22003;50.320;8.054;2024-03-02T11:38:32;66.90;;;34.65;;
35907;SDS011;22003;50.320;8.054;2024-03-02T11:41:01;54.20;;;33.10;;
35907;SDS011;22003;50.320;8.054;2024-03-02T11:43:28;51.72;;;30.65;;
35907;SDS011;22003;50.320;8.054;2024-03-02T11:45:58;104.20;;;65.45;;
35907;SDS011;22003;50.320;8.054;2024-03-02T11:48:24;13.55;;;10.93;;
35907;SDS011;22003;50.320;8.054;2024-03-02T11:50:50;5.78;;;4.40;;
35907;SDS011;22003;50.320;8.054;2024-03-02T11:53:16;18.45;;;13.43;;
35907;SDS011;22003;50.320;8.054;2024-03-02T11:55:42;8.05;;;5.53;;
35907;SDS011;22003;50.320;8.054;2024-03-02T11:58:16;5.45;;;3.83;;
35907;SDS011;22003;50.320;8.054;2024-03-02T12:00:42;28.67;;;22.30;;
35907;SDS011;22003;50.320;8.054;2024-03-02T12:03:09;21.95;;;16.65;;
35907;SDS011;22003;50.320;8.054;2024-03-02T12:05:37;20.30;;;15.45;;
35907;SDS011;22003;50.320;8.054;2024-03-02T12:08:03;4.93;;;3.15;;
35907;SDS011;22003;50.320;8.054;2024-03-02T12:10:30;4.03;;;3.30;;
35907;SDS011;22003;50.320;8.054;2024-03-02T12:13:03;3.88;;;3.33;;
35907;SDS011;22003;50.320;8.054;2024-03-02T12:15:29;4.90;;;3.20;;
35907;SDS011;22003;50.320;8.054;2024-03-02T12:17:56;3.22;;;2.30;;
35907;SDS011;22003;50.320;8.054;2024-03-02T12:20:23;3.58;;;2.53;;
35907;SDS011;22003;50.320;8.054;2024-03-02T12:22:52;3.30;;;2.35;;
35907;SDS011;22003;50.320;8.054;2024-03-02T12:25:22;4.20;;;2.33;;
35907;SDS011;22003;50.320;8.054;2024-03-02T12:27:52;3.28;;;2.60;;
35907;SDS011;22003;50.320;8.054;2024-03-02T12:30:19;3.08;;;2.35;;
35907;SDS011;22003;50.320;8.054;2024-03-02T12:32:45;2.80;;;2.05;;
35907;SDS011;22003;50.320;8.054;2024-03-02T12:35:12;2.20;;;1.50;;
35907;SDS011;22003;50.320;8.054;2024-03-02T12:37:47;3.30;;;2.28;;
35907;SDS011;22003;50.320;8.054;2024-03-02T12:40:13;2.33;;;1.95;;
35907;SDS011;22003;50.320;8.054;2024-03-02T12:42:40;2.77;;;2.00;;
35907;SDS011;22003;50.320;8.054;2024-03-02T12:45:06;5.32;;;3.55;;
35907;SDS011;22003;50.320;8.054;2024-03-02T12:47:33;13.98;;;9.48;;
35907;SDS011;22003;50.320;8.054;2024-03-02T12:49:59;20.00;;;10.75;;
35907;SDS011;22003;50.320;8.054;2024-03-02T12:52:24;26.15;;;15.25;;
35907;SDS011;22003;50.320;8.054;2024-03-02T12:54:50;16.50;;;10.95;;
35907;SDS011;22003;50.320;8.054;2024-03-02T12:57:18;4.85;;;3.50;;
35907;SDS011;22003;50.320;8.054;2024-03-02T12:59:47;3.60;;;2.65;;
35907;SDS011;22003;50.320;8.054;2024-03-02T13:02:19;3.63;;;1.70;;
35907;SDS011;22003;50.320;8.054;2024-03-02T13:04:51;1.20;;;1.08;;
35907;SDS011;22003;50.320;8.054;2024-03-02T13:07:19;2.35;;;1.10;;
35907;SDS011;22003;50.320;8.054;2024-03-02T13:09:45;1.98;;;1.58;;
35907;SDS011;22003;50.320;8.054;2024-03-02T13:12:11;1.60;;;0.93;;
35907;SDS011;22003;50.320;8.054;2024-03-02T13:14:36;2.25;;;1.27;;
35907;SDS011;22003;50.320;8.054;2024-03-02T13:17:01;1.73;;;1.27;;
35907;SDS011;22003;50.320;8.054;2024-03-02T13:19:30;3.30;;;2.10;;
35907;SDS011;22003;50.320;8.054;2024-03-02T13:21:55;4.65;;;2.60;;
35907;SDS011;22003;50.320;8.054;2024-03-02T13:24:22;2.78;;;1.98;;
35907;SDS011;22003;50.320;8.054;2024-03-02T13:26:50;7.78;;;4.55;;
35907;SDS011;22003;50.320;8.054;2024-03-02T13:29:20;7.65;;;4.75;;
35907;SDS011;22003;50.320;8.054;2024-03-02T13:31:46;3.00;;;2.33;;
35907;SDS011;22003;50.320;8.054;2024-03-02T13:34:11;2.28;;;1.48;;
35907;SDS011;22003;50.320;8.054;2024-03-02T13:36:37;3.13;;;2.33;;
35907;SDS011;22003;50.320;8.054;2024-03-02T13:39:03;4.10;;;2.60;;
35907;SDS011;22003;50.320;8.054;2024-03-02T13:41:30;15.75;;;8.98;;
35907;SDS011;22003;50.320;8.054;2024-03-02T13:43:55;7.43;;;4.80;;
35907;SDS011;22003;50.320;8.054;2024-03-02T13:46:21;38.08;;;22.63;;
35907;SDS011;22003;50.320;8.054;2024-03-02T13:48:46;3.28;;;2.80;;
35907;SDS011;22003;50.320;8.054;2024-03-02T13:51:12;18.25;;;11.38;;
35907;SDS011;22003;50.320;8.054;2024-03-02T13:53:37;21.20;;;14.98;;
35907;SDS011;22003;50.320;8.054;2024-03-02T13:56:02;6.45;;;5.38;;
35907;SDS011;22003;50.320;8.054;2024-03-02T13:58:28;2.17;;;1.45;;
35907;SDS011;22003;50.320;8.054;2024-03-02T14:00:53;2.88;;;1.80;;
35907;SDS011;22003;50.320;8.054;2024-03-02T14:03:18;8.23;;;6.05;;
35907;SDS011;22003;50.320;8.054;2024-03-02T14:05:44;8.63;;;6.07;;
35907;SDS011;22003;50.320;8.054;2024-03-02T14:08:11;23.63;;;18.80;;
35907;SDS011;22003;50.320;8.054;2024-03-02T14:10:36;56.15;;;39.38;;
35907;SDS011;22003;50.320;8.054;2024-03-02T14:13:01;8.27;;;5.93;;
35907;SDS011;22003;50.320;8.054;2024-03-02T14:15:27;19.08;;;15.07;;
35907;SDS011;22003;50.320;8.054;2024-03-02T14:17:52;58.50;;;40.83;;
35907;SDS011;22003;50.320;8.054;2024-03-02T14:20:17;21.50;;;16.67;;
35907;SDS011;22003;50.320;8.054;2024-03-02T14:22:46;6.13;;;5.22;;
35907;SDS011;22003;50.320;8.054;2024-03-02T14:25:12;14.35;;;12.48;;
35907;SDS011;22003;50.320;8.054;2024-03-02T14:27:38;5.18;;;4.30;;
35907;SDS011;22003;50.320;8.054;2024-03-02T14:30:03;15.15;;;12.35;;
35907;SDS011;22003;50.320;8.054;2024-03-02T14:32:30;8.75;;;5.38;;
35907;SDS011;22003;50.320;8.054;2024-03-02T14:34:55;3.38;;;2.80;;
35907;SDS011;22003;50.320;8.054;2024-03-02T14:37:21;18.33;;;11.45;;
35907;SDS011;22003;50.320;8.054;2024-03-02T14:39:46;13.00;;;7.22;;
35907;SDS011;22003;50.320;8.054;2024-03-02T14:42:12;53.15;;;32.15;;
35907;SDS011;22003;50.320;8.054;2024-03-02T14:44:37;63.35;;;40.22;;
35907;SDS011;22003;50.320;8.054;2024-03-02T14:47:02;83.32;;;42.47;;
35907;SDS011;22003;50.320;8.054;2024-03-02T14:49:31;118.03;;;58.55;;